Zwingle, Iowa
Current Conditions -  °F | °C
As of 1:53 PM on Wednesday 28 Jan 2015 (Local Time) from KDBQ Reporting Station
Clear Clear  
Wind Chill: 18°   Ceiling: Unl
Heat Index: 31°   Visibility: 10mi
Dew Point: 21°   Wind: 22mph
Humidity: 67%   Direction: 150°SSE
Pressure: 29.94"   Gusts: 31mph
Location:  42.3°N, 90.69°W
Report Text: KDBQ 281953Z 15019G27KT 10SM CLR M01/M06 A2994 RMK AO2 PK WND 14027/1952 SLP151 T10061061
Loading
Personal Weather Stations






























Interactive Weather Map New forecast layout! Learn more

10-Day Weather Forecast

Advertisements
Track Severe Weather on mobile